Jardim, Brazil
Current Conditions -  °F | °C
As of 7:00 PM on Friday 19 Dec 2014 (Local Time) from SBJU Reporting Station
Few Clouds Few Clouds  
Wind Chill: 91°   Ceiling: Unl
Heat Index: 95°   Visibility: 6mi
Dew Point: 68°   Wind: 2mph
Humidity: 46%   Direction: 310°NW
Pressure: 29.91"   Gusts: NA
Location:  7.58°S, 39.3°W
Report Text: SBJU 192200Z 31002KT 9999 FEW022 33/20 Q1013
Loading
Personal Weather Stations






























Interactive Weather Map New forecast layout! Learn more

10-Day Weather Forecast

Advertisements
Track Severe Weather on mobile